Time;durP1;ratioP1;P1;durP2;ratioP2;P2;SDS_P1;SDS_P2;PMS_P1;PMS_P2;Temp;Humidity;BMP_temperature;BMP_pressure;BME280_temperature;BME280_humidity;BME280_pressure;Samples;Min_cycle;Max_cycle;Signal;HPM_P1;HPM_P2
2023/04/06 00:02:24;;;;;;;83.35;76.72;;;;;;;0.80;59.13;100876.42;1702670;83;25422;-71
2023/04/06 00:04:50;;;;;;;81.15;74.72;;;;;;;0.80;59.21;100872.92;1670348;85;25408;-71
2023/04/06 00:07:17;;;;;;;84.58;77.95;;;;;;;0.76;59.23;100871.77;1685450;85;26170;-71
2023/04/06 00:09:44;;;;;;;83.00;76.75;;;;;;;0.77;59.27;100866.22;1719323;83;25597;-70
2023/04/06 00:12:11;;;;;;;81.65;75.42;;;;;;;0.77;59.20;100866.72;1719216;83;27316;-70
2023/04/06 00:14:37;;;;;;;74.22;68.25;;;;;;;0.76;59.22;100864.58;1719193;83;25400;-70
2023/04/06 00:17:03;;;;;;;84.92;78.07;;;;;;;0.79;59.25;100872.65;1719265;83;25587;-70
2023/04/06 00:19:30;;;;;;;85.50;78.22;;;;;;;0.78;59.18;100869.69;1719194;83;26329;-70
2023/04/06 00:21:56;;;;;;;83.50;76.82;;;;;;;0.76;59.20;100861.92;1719277;83;25422;-70
2023/04/06 00:24:22;;;;;;;79.80;73.67;;;;;;;0.77;59.21;100864.05;1719252;83;27327;-70
2023/04/06 00:26:49;;;;;;;23.18;8.13;;;;;;;0.79;59.22;100867.33;1719173;83;25637;-70
2023/04/06 00:29:15;;;;;;;86.42;79.67;;;;;;;0.80;59.14;100863.60;1726957;83;25421;-70
2023/04/06 00:31:41;;;;;;;83.42;77.17;;;;;;;0.79;59.18;100852.67;1670236;85;25621;-71
2023/04/06 00:34:08;;;;;;;18.60;14.45;;;;;;;0.78;59.19;100850.52;1719250;83;25563;-71
2023/04/06 00:36:34;;;;;;;22.07;19.40;;;;;;;0.79;59.25;100848.16;1719313;83;27866;-71
2023/04/06 00:39:00;;;;;;;25.90;19.62;;;;;;;0.78;59.29;100845.72;1670198;85;25546;-70
2023/04/06 00:41:26;;;;;;;86.25;79.47;;;;;;;0.79;59.26;100840.69;1670272;85;25484;-70
2023/04/06 00:43:54;;;;;;;84.28;77.80;;;;;;;0.79;59.27;100840.69;1719212;83;25696;-71
2023/04/06 00:46:23;;;;;;;84.05;77.05;;;;;;;0.78;59.29;100841.72;1719280;83;25396;-71
2023/04/06 00:48:49;;;;;;;83.03;76.30;;;;;;;0.78;59.28;100841.72;1670258;85;27314;-71
2023/04/06 00:51:15;;;;;;;84.58;77.22;;;;;;;0.78;59.32;100841.19;1670148;85;25727;-70
2023/04/06 00:53:42;;;;;;;83.72;76.70;;;;;;;0.79;59.28;100836.17;1670220;85;25571;-70
2023/04/06 00:56:09;;;;;;;83.17;76.30;;;;;;;0.77;59.36;100831.59;1670211;85;25763;-70
2023/04/06 00:58:40;;;;;;;83.27;76.42;;;;;;;0.77;59.52;100833.43;1719252;83;25575;-70
2023/04/06 01:01:06;;;;;;;67.55;62.00;;;;;;;0.78;59.67;100835.06;1726970;82;28074;-71
2023/04/06 01:03:33;;;;;;;19.05;10.98;;;;;;;0.79;59.73;100828.70;1702509;83;25448;-71
2023/04/06 01:05:59;;;;;;;46.18;42.50;;;;;;;0.79;59.70;100830.84;1719261;83;25570;-71
2023/04/06 01:08:27;;;;;;;86.05;79.05;;;;;;;0.78;59.77;100831.88;1721556;83;25622;-72
2023/04/06 01:10:53;;;;;;;86.70;79.82;;;;;;;0.79;59.95;100827.37;1679083;85;25483;-72
2023/04/06 01:13:20;;;;;;;85.35;78.72;;;;;;;0.77;59.97;100824.11;1678950;85;28180;-73
2023/04/06 01:15:48;;;;;;;86.10;79.17;;;;;;;0.77;60.02;100826.27;1725843;83;25728;-72
2023/04/06 01:18:15;;;;;;;87.12;80.03;;;;;;;0.74;60.03;100820.88;1679017;85;25578;-71
2023/04/06 01:20:41;;;;;;;84.05;77.47;;;;;;;0.73;60.01;100823.27;1725876;83;25672;-71
2023/04/06 01:23:08;;;;;;;87.37;79.92;;;;;;;0.76;60.00;100819.84;1679051;85;25476;-71
2023/04/06 01:25:34;;;;;;;83.95;77.25;;;;;;;0.75;60.01;100819.04;1678977;85;27342;-71
2023/04/06 01:28:01;;;;;;;83.58;77.17;;;;;;;0.73;60.16;100811.78;1725859;83;25699;-71
2023/04/06 01:30:27;;;;;;;87.10;80.03;;;;;;;0.74;60.10;100820.07;1668951;85;25189;-71
2023/04/06 01:32:53;;;;;;;84.47;77.72;;;;;;;0.73;60.12;100820.59;1725879;83;25679;-71
2023/04/06 01:35:22;;;;;;;85.53;78.80;;;;;;;0.72;60.23;100810.98;1725960;83;25562;-71
2023/04/06 01:37:48;;;;;;;84.32;77.67;;;;;;;0.71;60.16;100804.02;1679026;85;27335;-71
2023/04/06 01:40:15;;;;;;;84.50;78.20;;;;;;;0.70;60.17;100801.08;1692125;84;25913;-71
2023/04/06 01:42:42;;;;;;;84.15;77.72;;;;;;;0.71;60.28;100807.21;1725912;83;25414;-71
2023/04/06 01:45:09;;;;;;;84.17;77.27;;;;;;;0.70;60.30;100804.27;1678962;85;26157;-71
2023/04/06 01:47:36;;;;;;;85.62;78.70;;;;;;;0.68;60.32;100803.67;1692428;84;25558;-71
2023/04/06 01:50:05;;;;;;;84.22;77.70;;;;;;;0.67;60.38;100804.73;1678956;85;27335;-71
2023/04/06 01:52:30;;;;;;;63.30;58.37;;;;;;;0.64;60.49;100807.32;1668932;85;25495;-71
2023/04/06 01:54:57;;;;;;;82.80;76.28;;;;;;;0.63;60.41;100801.72;1679024;85;25428;-71
2023/04/06 01:57:23;;;;;;;85.22;78.42;;;;;;;0.62;60.45;100804.08;1725971;83;25582;-71
2023/04/06 01:59:49;;;;;;;83.75;77.17;;;;;;;0.60;60.57;100800.84;1726023;83;25555;-71
2023/04/06 02:02:16;;;;;;;83.05;76.85;;;;;;;0.59;60.64;100800.55;1678965;85;27342;-71
2023/04/06 02:04:42;;;;;;;82.82;76.33;;;;;;;0.59;60.73;100803.73;1725772;83;25573;-71
2023/04/06 02:07:09;;;;;;;82.82;76.45;;;;;;;0.56;60.76;100794.34;1679011;85;25413;-71
2023/04/06 02:09:36;;;;;;;81.28;75.25;;;;;;;0.57;60.85;100789.84;1725961;82;25689;-71
2023/04/06 02:12:03;;;;;;;84.55;78.05;;;;;;;0.55;60.88;100794.06;1726198;83;25383;-71
2023/04/06 02:14:29;;;;;;;81.97;75.55;;;;;;;0.54;60.92;100792.44;1669353;85;27343;-71
2023/04/06 02:16:56;;;;;;;83.15;77.05;;;;;;;0.50;60.87;100785.43;1726100;83;25531;-70
2023/04/06 02:19:23;;;;;;;82.92;76.80;;;;;;;0.48;60.89;100784.05;1726159;83;25532;-70
2023/04/06 02:21:50;;;;;;;82.57;76.25;;;;;;;0.44;60.84;100780.21;1726090;83;26310;-70
2023/04/06 02:24:18;;;;;;;82.10;75.62;;;;;;;0.43;60.87;100779.94;1679245;85;25655;-70
2023/04/06 02:26:44;;;;;;;82.65;76.37;;;;;;;0.39;60.92;100775.56;1731669;82;28106;-70
2023/04/06 02:29:11;;;;;;;85.12;78.65;;;;;;;0.35;61.02;100779.73;1632650;85;26437;-70
2023/04/06 02:31:37;;;;;;;84.62;78.05;;;;;;;0.31;61.08;100772.73;1692643;84;25443;-70
2023/04/06 02:34:03;;;;;;;80.60;74.10;;;;;;;0.28;61.20;100775.84;1726071;83;26238;-70
2023/04/06 02:36:30;;;;;;;85.35;78.72;;;;;;;0.23;61.28;100769.59;1726162;83;25386;-70
2023/04/06 02:38:56;;;;;;;83.42;77.20;;;;;;;0.18;61.44;100773.73;1679203;84;27387;-70
2023/04/06 02:41:23;;;;;;;81.17;75.10;;;;;;;0.14;61.52;100775.24;1726047;83;25395;-69
2023/04/06 02:43:49;;;;;;;80.70;74.58;;;;;;;0.07;61.62;100760.41;1726134;82;25607;-69
2023/04/06 02:46:15;;;;;;;82.97;76.80;;;;;;;0.06;61.63;100782.21;1679208;85;25648;-69
2023/04/06 02:48:42;;;;;;;83.30;76.95;;;;;;;0.04;61.68;100778.17;1707510;83;25557;-70
2023/04/06 02:51:08;;;;;;;83.45;77.15;;;;;;;-0.02;61.87;100771.39;1726149;83;28074;-70
2023/04/06 02:53:36;;;;;;;82.20;75.70;;;;;;;-0.06;62.00;100772.06;1725987;83;25392;-70
2023/04/06 02:56:02;;;;;;;84.00;77.17;;;;;;;-0.12;62.14;100760.48;1726230;82;25636;-70
2023/04/06 02:58:28;;;;;;;83.20;77.05;;;;;;;-0.07;62.20;100777.91;1669250;85;25663;-71
2023/04/06 03:00:54;;;;;;;84.83;77.95;;;;;;;-0.19;62.37;100767.73;1707518;83;25419;-71
2023/04/06 03:03:21;;;;;;;82.08;75.60;;;;;;;-0.23;62.55;100772.69;1726195;83;27899;-71
2023/04/06 03:05:47;;;;;;;84.85;78.20;;;;;;;-0.24;62.67;100772.41;1726053;82;25537;-71
2023/04/06 03:08:15;;;;;;;85.15;78.30;;;;;;;-0.30;62.83;100767.18;1726074;83;25649;-71
2023/04/06 03:10:41;;;;;;;83.10;76.55;;;;;;;-0.30;62.83;100770.64;1678927;85;25688;-71
2023/04/06 03:13:09;;;;;;;83.27;77.15;;;;;;;-0.32;63.10;100771.39;1725829;83;25465;-71
2023/04/06 03:15:35;;;;;;;86.78;79.47;;;;;;;-0.34;63.29;100770.81;1725860;83;27286;-71
2023/04/06 03:18:02;;;;;;;83.37;76.53;;;;;;;-0.37;63.39;100769.92;1678834;85;25552;-71
2023/04/06 03:20:28;;;;;;;83.07;76.85;;;;;;;-0.39;63.81;100770.67;1725875;83;25406;-71
2023/04/06 03:22:55;;;;;;;84.05;77.60;;;;;;;-0.39;63.81;100770.67;1692088;84;25701;-71
2023/04/06 03:25:22;;;;;;;85.03;78.30;;;;;;;-0.41;63.80;100773.55;1725872;83;25548;-73
2023/04/06 03:27:48;;;;;;;82.97;76.33;;;;;;;-0.42;63.98;100771.91;1678958;85;27951;-73
2023/04/06 03:30:17;;;;;;;88.37;80.97;;;;;;;-0.42;64.12;100772.44;1678844;85;25660;-73
2023/04/06 03:32:45;;;;;;;83.60;77.05;;;;;;;-0.43;64.23;100769.48;1725970;83;25529;-72
2023/04/06 03:35:11;;;;;;;83.65;77.05;;;;;;;-0.43;64.45;100769.48;1678875;85;26181;-72
2023/04/06 03:37:37;;;;;;;83.82;77.30;;;;;;;-0.43;64.57;100772.94;1726029;83;25569;-72
2023/04/06 03:40:06;;;;;;;85.25;78.10;;;;;;;-0.42;64.77;100777.76;1679115;84;27410;-72
2023/04/06 03:42:32;;;;;;;83.45;76.85;;;;;;;-0.41;64.83;100778.86;1707285;83;26710;-72
2023/04/06 03:44:59;;;;;;;84.90;78.28;;;;;;;-0.39;65.04;100772.80;1679130;85;25552;-72
2023/04/06 03:47:26;;;;;;;84.58;77.70;;;;;;;-0.38;65.09;100778.92;1725996;83;25663;-72
2023/04/06 03:49:52;;;;;;;86.20;78.37;;;;;;;-0.39;65.13;100772.80;1679150;85;25410;-72
2023/04/06 03:52:19;;;;;;;84.15;77.30;;;;;;;-0.28;65.21;100788.50;1679118;85;27329;-71
2023/04/06 03:54:46;;;;;;;82.72;76.30;;;;;;;-0.33;65.36;100775.59;1731317;82;25698;-71
2023/04/06 03:57:12;;;;;;;82.75;76.33;;;;;;;-0.32;65.47;100776.70;1726000;83;25553;-72
2023/04/06 03:59:39;;;;;;;84.17;77.32;;;;;;;-0.32;65.38;100775.38;1731675;82;26101;-72
2023/04/06 04:02:05;;;;;;;83.80;77.08;;;;;;;-0.33;65.42;100767.62;1679249;84;25404;-71
2023/04/06 04:04:34;;;;;;;83.12;76.55;;;;;;;-0.31;65.56;100764.22;1679130;85;27409;-71
2023/04/06 04:07:00;;;;;;;61.02;56.18;;;;;;;-0.30;65.58;100763.19;1726141;83;25557;-70
2023/04/06 04:09:27;;;;;;;83.78;77.30;;;;;;;-0.29;65.64;100766.13;1725920;83;25403;-71
2023/04/06 04:11:54;;;;;;;84.87;78.20;;;;;;;-0.29;65.64;100766.13;1679043;85;26322;-70
2023/04/06 04:14:21;;;;;;;84.77;77.60;;;;;;;-0.29;65.72;100766.96;1731721;82;25612;-70
2023/04/06 04:16:47;;;;;;;85.22;78.00;;;;;;;-0.27;65.69;100761.42;1731746;82;27816;-71
2023/04/06 04:19:14;;;;;;;83.92;77.17;;;;;;;-0.29;65.80;100760.31;1678989;84;25618;-69
2023/04/06 04:21:46;;;;;;;86.40;79.00;;;;;;;-0.27;65.79;100761.42;1679092;85;25556;-70
2023/04/06 04:24:13;;;;;;;84.58;77.10;;;;;;;-0.26;65.82;100758.51;1725957;83;25617;-71
2023/04/06 04:26:41;;;;;;;84.87;77.53;;;;;;;-0.25;65.94;100754.02;1679166;85;25241;-72
2023/04/06 04:29:08;;;;;;;84.72;77.97;;;;;;;-0.23;65.97;100763.91;1725998;83;27382;-72
2023/04/06 04:31:34;;;;;;;82.92;76.40;;;;;;;-0.21;66.06;100767.14;1679005;85;25569;-74
2023/04/06 04:34:01;;;;;;;83.75;77.08;;;;;;;-0.21;66.03;100755.18;1726017;83;25410;-72
2023/04/06 04:36:27;;;;;;;85.42;78.40;;;;;;;-0.19;66.09;100758.42;1725992;83;25620;-72
2023/04/06 04:38:56;;;;;;;86.72;80.05;;;;;;;-0.16;66.14;100759.30;1692675;84;25246;-70
2023/04/06 04:41:23;;;;;;;84.03;77.53;;;;;;;-0.15;66.11;100744.15;1679887;85;27389;-72
2023/04/06 04:43:49;;;;;;;82.33;75.95;;;;;;;-0.13;66.13;100746.09;1679782;84;25415;-71
2023/04/06 04:46:15;;;;;;;83.37;76.97;;;;;;;-0.10;66.12;100743.78;1679678;85;25561;-71
2023/04/06 04:48:42;;;;;;;85.65;78.52;;;;;;;-0.06;66.15;100745.47;1679067;85;25604;-72
2023/04/06 04:51:09;;;;;;;84.58;77.72;;;;;;;-0.01;66.08;100746.40;1725983;83;25605;-73
2023/04/06 04:53:35;;;;;;;82.42;76.17;;;;;;;-0.01;65.97;100738.95;1679032;85;28135;-65
2023/04/06 04:56:02;;;;;;;82.40;76.05;;;;;;;0.04;66.11;100739.08;1678918;85;25522;-66
2023/04/06 04:58:29;;;;;;;80.87;74.67;;;;;;;0.08;66.09;100740.76;1679007;85;25621;-66
2023/04/06 05:00:55;;;;;;;83.87;76.97;;;;;;;0.12;65.98;100741.91;1678943;85;25650;-66
2023/04/06 05:03:25;;;;;;;83.35;76.67;;;;;;;0.13;65.98;100739.02;1679043;85;25503;-66
2023/04/06 05:05:52;;;;;;;86.08;78.90;;;;;;;0.19;66.07;100743.97;1692378;84;27213;-67
2023/04/06 05:08:19;;;;;;;85.70;78.78;;;;;;;0.23;65.98;100742.99;1725835;83;25764;-67
2023/04/06 05:10:48;;;;;;;82.15;75.40;;;;;;;0.30;65.96;100753.00;1679193;84;25543;-67
2023/04/06 05:13:15;;;;;;;58.50;53.75;;;;;;;0.34;65.95;100750.16;1731964;82;25500;-66
2023/04/06 05:15:42;;;;;;;81.05;74.47;;;;;;;0.42;65.90;100749.03;1726176;82;25461;-66
2023/04/06 05:18:09;;;;;;;83.27;76.37;;;;;;;0.47;65.85;100748.62;1679214;84;27340;-66
2023/04/06 05:20:37;;;;;;;84.20;77.37;;;;;;;0.53;65.73;100746.38;1679143;85;25546;-70
2023/04/06 05:23:04;;;;;;;82.25;75.87;;;;;;;0.64;65.76;100751.94;1726164;83;25431;-67
2023/04/06 05:25:32;;;;;;;82.10;75.22;;;;;;;0.72;65.77;100751.06;1726230;83;25574;-66
2023/04/06 05:28:00;;;;;;;81.15;74.70;;;;;;;0.81;65.56;100741.39;1726221;83;25414;-66
2023/04/06 05:30:27;;;;;;;81.15;75.03;;;;;;;0.97;65.21;100745.19;1726128;83;27297;-65
2023/04/06 05:32:55;;;;;;;82.05;75.40;;;;;;;0.97;65.21;100745.19;1726102;82;25464;-66
2023/04/06 05:35:22;;;;;;;81.40;75.05;;;;;;;1.03;64.87;100733.08;1726018;83;25399;-66
2023/04/06 05:37:50;;;;;;;80.57;74.12;;;;;;;1.15;64.49;100740.25;1692709;84;25581;-66
2023/04/06 05:40:17;;;;;;;81.57;75.42;;;;;;;1.15;64.49;100740.25;1679284;85;25669;-67
2023/04/06 05:42:43;;;;;;;82.05;75.57;;;;;;;1.30;64.65;100740.03;1679214;85;27303;-67
2023/04/06 05:45:16;;;;;;;80.87;75.00;;;;;;;1.30;64.65;100740.03;1679135;85;25711;-65
2023/04/06 05:47:44;;;;;;;82.30;76.20;;;;;;;1.43;63.98;100739.47;1726176;83;25584;-65
2023/04/06 05:50:14;;;;;;;80.95;74.97;;;;;;;1.43;63.98;100739.47;1726224;82;25675;-65
2023/04/06 05:52:43;;;;;;;81.15;75.00;;;;;;;1.48;64.10;100735.06;1679348;85;25572;-66
2023/04/06 05:55:11;;;;;;;81.20;75.25;;;;;;;1.56;63.96;100727.72;1726215;83;27448;-66
2023/04/06 05:57:37;;;;;;;81.72;75.70;;;;;;;1.62;63.82;100726.25;1731819;82;25560;-65
2023/04/06 06:00:09;;;;;;;79.87;73.87;;;;;;;1.69;63.78;100731.44;1726120;83;25592;-66
2023/04/06 06:02:35;;;;;;;80.20;74.20;;;;;;;1.77;63.67;100722.23;1677672;85;26227;-64
2023/04/06 06:05:02;;;;;;;81.12;75.12;;;;;;;1.85;63.76;100729.84;1726136;83;25482;-64
2023/04/06 06:07:28;;;;;;;78.97;73.17;;;;;;;1.93;63.41;100728.66;1707545;83;27379;-64
2023/04/06 06:09:58;;;;;;;80.75;75.03;;;;;;;1.95;63.14;100725.22;1726012;82;25630;-65
2023/04/06 06:12:25;;;;;;;80.72;74.97;;;;;;;1.98;63.04;100726.88;1678985;85;25429;-66
2023/04/06 06:14:51;;;;;;;82.95;76.90;;;;;;;2.04;62.70;100726.44;1678324;85;27794;-65
2023/04/06 06:17:17;;;;;;;81.25;75.55;;;;;;;2.05;62.96;100712.85;1678283;85;25686;-66
2023/04/06 06:19:44;;;;;;;82.08;76.20;;;;;;;2.15;62.84;100716.75;1678332;85;27378;-65
2023/04/06 06:22:10;;;;;;;82.72;76.70;;;;;;;2.21;62.74;100717.10;1678844;84;25600;-65
2023/04/06 06:24:37;;;;;;;80.05;73.83;;;;;;;2.30;62.85;100717.50;1679051;85;25408;-65
2023/04/06 06:27:03;;;;;;;73.62;68.25;;;;;;;2.40;62.58;100720.33;1678910;84;25629;-65
2023/04/06 06:29:29;;;;;;;9.03;4.60;;;;;;;2.44;62.31;100725.48;1678943;84;25711;-65
2023/04/06 06:31:55;;;;;;;11.28;4.35;;;;;;;2.45;61.95;100724.95;1679002;85;29561;-65
2023/04/06 06:34:22;;;;;;;5.90;4.58;;;;;;;2.40;61.80;100727.00;1725821;83;25388;-65
2023/04/06 06:36:48;;;;;;;8.33;4.72;;;;;;;2.36;61.76;100722.68;1725921;83;25696;-66
2023/04/06 06:39:14;;;;;;;7.60;4.22;;;;;;;2.37;61.85;100709.62;1725902;83;25638;-66
2023/04/06 06:41:41;;;;;;;10.40;7.78;;;;;;;2.42;62.09;100720.92;1679021;84;25613;-65
2023/04/06 06:44:07;;;;;;;82.60;76.72;;;;;;;2.50;62.19;100712.47;1725892;83;27419;-65
2023/04/06 06:46:34;;;;;;;80.40;74.75;;;;;;;2.58;62.42;100716.60;1678917;84;25431;-66
2023/04/06 06:49:00;;;;;;;82.12;76.22;;;;;;;2.70;62.44;100709.83;1678962;84;25571;-67
2023/04/06 06:51:26;;;;;;;81.25;75.62;;;;;;;2.79;62.27;100711.02;1678973;84;26388;-66
2023/04/06 06:53:52;;;;;;;6.78;4.00;;;;;;;2.92;62.25;100711.98;1678988;85;25419;-65
2023/04/06 06:56:18;;;;;;;9.08;4.12;;;;;;;3.12;62.47;100711.45;1725831;83;27455;-66
2023/04/06 06:58:45;;;;;;;6.37;3.67;;;;;;;3.30;62.64;100709.00;1678867;85;25592;-66
2023/04/06 07:01:11;;;;;;;7.17;3.80;;;;;;;3.50;62.34;100707.05;1725872;83;25486;-67
2023/04/06 07:03:39;;;;;;;6.75;3.45;;;;;;;3.59;61.83;100707.95;1678613;85;25690;-66
2023/04/06 07:06:06;;;;;;;7.25;3.98;;;;;;;3.69;61.60;100713.41;1677986;85;25688;-65
2023/04/06 07:08:32;;;;;;;5.67;3.50;;;;;;;3.70;61.02;100697.09;1678258;85;27609;-66
2023/04/06 07:11:00;;;;;;;8.05;4.30;;;;;;;3.70;60.70;100707.80;1707118;83;25447;-66
2023/04/06 07:13:27;;;;;;;8.30;4.65;;;;;;;3.62;60.14;100694.87;1669158;85;25677;-65
2023/04/06 07:15:54;;;;;;;8.63;6.03;;;;;;;3.59;60.39;100705.27;1726050;83;25737;-64
2023/04/06 07:18:22;;;;;;;9.45;6.67;;;;;;;3.61;60.46;100697.80;1724964;82;25635;-65
2023/04/06 07:20:50;;;;;;;6.78;4.40;;;;;;;3.58;60.27;100697.78;1678003;85;28089;-65
2023/04/06 07:23:16;;;;;;;5.42;4.05;;;;;;;3.53;60.26;100697.20;1724789;83;25725;-66
2023/04/06 07:25:43;;;;;;;12.00;8.73;;;;;;;3.54;60.57;100704.17;1725312;83;25748;-65
2023/04/06 07:28:10;;;;;;;15.53;14.13;;;;;;;3.62;60.66;100708.79;1678275;85;25846;-65
2023/04/06 07:30:38;;;;;;;10.38;6.15;;;;;;;3.65;60.65;100707.75;1725201;83;25706;-66
2023/04/06 07:33:05;;;;;;;83.60;77.55;;;;;;;3.72;60.54;100704.87;1725775;83;27319;-65
2023/04/06 07:35:34;;;;;;;81.32;75.75;;;;;;;3.76;60.56;100696.61;1726135;83;25398;-66
2023/04/06 07:38:01;;;;;;;77.20;71.85;;;;;;;3.78;60.03;100698.52;1726263;82;25562;-66
2023/04/06 07:40:44;;;;;;;81.15;75.57;;;;;;;3.79;59.95;100697.98;1726519;83;25627;-65
2023/04/06 07:43:10;;;;;;;4.70;3.52;;;;;;;3.81;60.12;100695.86;1708164;83;25684;-65
2023/04/06 07:45:37;;;;;;;8.75;3.70;;;;;;;3.85;59.99;100703.13;1724434;83;28081;-67
2023/04/06 07:48:04;;;;;;;6.20;3.90;;;;;;;3.82;60.16;100700.95;1678696;85;25674;-65
2023/04/06 07:50:30;;;;;;;7.60;3.65;;;;;;;3.85;60.02;100701.80;1725708;83;25579;-66
2023/04/06 07:52:57;;;;;;;6.30;3.58;;;;;;;3.85;60.38;100695.11;1678744;85;25744;-67
2023/04/06 07:55:24;;;;;;;7.15;3.75;;;;;;;3.82;60.85;100693.47;1725738;83;25381;-66
2023/04/06 07:57:51;;;;;;;8.60;3.37;;;;;;;3.73;61.23;100699.27;1726056;83;27257;-68
2023/04/06 08:00:19;;;;;;;8.08;3.58;;;;;;;3.73;62.11;100698.48;1679126;84;25621;-67
2023/04/06 08:02:46;;;;;;;7.40;3.72;;;;;;;3.71;62.31;100690.70;1725494;83;25751;-67
2023/04/06 08:05:12;;;;;;;4.87;3.12;;;;;;;3.66;62.02;100689.31;1726029;83;25771;-66
2023/04/06 08:07:39;;;;;;;8.63;4.08;;;;;;;3.68;62.61;100688.52;1726094;83;25587;-66
2023/04/06 08:10:06;;;;;;;8.05;3.45;;;;;;;3.73;62.86;100688.57;1725568;83;27307;-66
2023/04/06 08:12:33;;;;;;;7.47;3.00;;;;;;;3.73;62.93;100687.23;1674456;85;25702;-66
2023/04/06 08:15:00;;;;;;;8.00;3.85;;;;;;;3.74;63.23;100689.37;1674478;84;25502;-66
2023/04/06 08:17:29;;;;;;;6.00;3.83;;;;;;;3.73;63.24;100697.94;1674445;85;26269;-66
2023/04/06 08:19:55;;;;;;;6.67;3.15;;;;;;;3.64;63.03;100690.07;1673884;84;25803;-65
2023/04/06 08:22:21;;;;;;;11.68;4.47;;;;;;;3.59;63.21;100683.88;1673474;85;27400;-65
2023/04/06 08:24:47;;;;;;;7.67;3.67;;;;;;;3.55;63.37;100682.23;1674154;85;25597;-65
2023/04/06 08:27:14;;;;;;;9.98;4.28;;;;;;;3.53;63.43;100679.02;1674158;85;25641;-66
2023/04/06 08:29:41;;;;;;;6.15;3.52;;;;;;;3.49;63.57;100680.56;1674172;84;25590;-65
2023/04/06 08:32:07;;;;;;;6.35;3.85;;;;;;;3.47;63.37;100683.48;1674220;84;25648;-65
2023/04/06 08:34:34;;;;;;;6.70;4.00;;;;;;;3.39;63.28;100680.45;1672258;85;27440;-67
2023/04/06 08:37:00;;;;;;;7.58;3.98;;;;;;;3.31;63.51;100682.52;1674581;85;25777;-68
2023/04/06 08:39:28;;;;;;;6.67;3.65;;;;;;;3.29;64.10;100681.17;1674682;85;25491;-69
2023/04/06 08:41:59;;;;;;;7.55;4.22;;;;;;;3.25;64.04;100678.70;1674795;85;27765;-70
2023/04/06 08:44:31;;;;;;;5.45;3.77;;;;;;;3.25;64.29;100680.04;1675843;84;25682;-69
2023/04/06 08:49:38;;;;;;;5.53;3.95;;;;;;;3.40;64.97;100668.17;1724109;80;26792;-70
2023/04/06 08:52:08;;;;;;;6.25;3.52;;;;;;;3.51;65.50;100671.23;1742492;82;25559;-70
2023/04/06 08:54:34;;;;;;;5.28;3.62;;;;;;;3.54;65.62;100672.08;1743481;82;25684;-68
2023/04/06 08:57:03;;;;;;;8.98;4.47;;;;;;;3.55;65.77;100671.54;1745423;82;25616;-71
2023/04/06 08:59:30;;;;;;;7.40;4.42;;;;;;;3.57;66.05;100674.77;1745385;82;27446;-70
2023/04/06 09:01:58;;;;;;;6.67;3.85;;;;;;;3.49;65.53;100674.70;1714170;82;25654;-69
2023/04/06 09:04:25;;;;;;;8.30;4.30;;;;;;;3.43;65.94;100656.98;1745359;82;25472;-68
2023/04/06 09:06:53;;;;;;;6.60;3.50;;;;;;;3.43;66.40;100656.17;1714339;82;25640;-68
2023/04/06 09:09:20;;;;;;;5.92;3.90;;;;;;;3.43;66.62;100650.83;1745357;82;25540;-70
2023/04/06 09:11:50;;;;;;;5.17;3.42;;;;;;;3.42;66.49;100639.84;1745344;81;27857;-67
2023/04/06 09:14:17;;;;;;;5.10;3.35;;;;;;;3.43;66.34;100641.47;1745116;81;25304;-68
2023/04/06 09:16:45;;;;;;;9.23;3.98;;;;;;;3.35;65.91;100638.20;1745021;82;25484;-67
2023/04/06 09:19:13;;;;;;;6.75;3.37;;;;;;;3.32;66.02;100637.86;1745110;82;26256;-67
2023/04/06 09:21:39;;;;;;;5.85;3.27;;;;;;;3.32;66.50;100635.19;1743898;82;25760;-67
2023/04/06 09:24:08;;;;;;;7.87;3.83;;;;;;;3.33;66.51;100633.61;1745048;82;27975;-68
2023/04/06 09:26:47;;;;;;;8.83;4.15;;;;;;;3.16;66.37;100631.02;1745250;82;25657;-68
2023/04/06 09:29:26;;;;;;;7.03;3.60;;;;;;;3.01;66.84;100626.84;1745613;82;25634;-67
2023/04/06 09:31:53;;;;;;;6.72;3.42;;;;;;;2.93;67.48;100635.33;1745471;82;25747;-68
2023/04/06 09:34:26;;;;;;;6.25;4.08;;;;;;;2.88;68.13;100629.89;1713849;82;25617;-68
2023/04/06 09:36:52;;;;;;;6.70;4.28;;;;;;;2.86;68.38;100622.16;1714750;82;27439;-68
2023/04/06 09:39:23;;;;;;;5.15;3.65;;;;;;;2.84;69.18;100624.24;1745261;82;25472;-68
2023/04/06 09:41:52;;;;;;;6.40;4.08;;;;;;;2.78;69.21;100619.38;1745329;82;25613;-68
2023/04/06 09:44:19;;;;;;;7.15;4.08;;;;;;;2.76;69.66;100613.48;1745416;82;26178;-68
2023/04/06 09:46:47;;;;;;;7.97;4.40;;;;;;;2.78;70.03;100610.02;1745357;81;25464;-67
2023/04/06 09:49:14;;;;;;;8.95;5.15;;;;;;;2.76;70.24;100605.47;1742736;81;27342;-67
2023/04/06 09:51:49;;;;;;;8.78;6.67;;;;;;;2.80;70.34;100602.56;1739686;82;25656;-67
2023/04/06 09:54:21;;;;;;;9.63;5.45;;;;;;;2.84;70.09;100603.41;1716868;82;25506;-67
2023/04/06 09:56:57;;;;;;;9.93;5.58;;;;;;;2.79;70.23;100604.14;1739674;82;25681;-65
2023/04/06 09:59:38;;;;;;;15.05;7.00;;;;;;;2.72;70.19;100595.52;1739545;82;25622;-67
2023/04/06 10:02:08;;;;;;;8.73;5.35;;;;;;;2.66;70.44;100597.33;1739813;82;27344;-66
2023/04/06 10:04:46;;;;;;;10.05;6.22;;;;;;;2.66;70.84;100588.52;1739432;82;26119;-65
2023/04/06 10:07:15;;;;;;;12.28;6.08;;;;;;;2.63;71.02;100587.14;1739361;82;25634;-66
2023/04/06 10:09:45;;;;;;;9.68;5.28;;;;;;;2.65;71.27;100588.23;1739690;82;25689;-65
2023/04/06 10:12:13;;;;;;;7.87;4.75;;;;;;;2.66;71.17;100591.19;1739768;82;25398;-64
2023/04/06 10:14:41;;;;;;;6.75;4.30;;;;;;;2.66;71.71;100590.66;1739040;82;29662;-67
2023/04/06 10:17:07;;;;;;;7.22;4.35;;;;;;;2.63;71.57;100589.80;1739654;82;25567;-64
2023/04/06 10:19:54;;;;;;;7.85;3.90;;;;;;;2.60;71.84;100594.30;1739476;82;25627;-65
2023/04/06 10:22:32;;;;;;;7.10;4.33;;;;;;;2.58;71.97;100596.42;1739743;82;25647;-65
2023/04/06 10:24:59;;;;;;;52.50;30.72;;;;;;;2.55;72.00;100592.91;1738553;82;25618;-63
2023/04/06 10:27:30;;;;;;;27.32;15.95;;;;;;;2.54;72.34;100593.98;1739751;82;27875;-63
2023/04/06 10:30:06;;;;;;;9.30;5.80;;;;;;;2.56;72.45;100599.34;1739737;81;25722;-64
2023/04/06 10:32:37;;;;;;;10.28;6.03;;;;;;;2.54;72.37;100591.31;1739568;82;25416;-64
2023/04/06 10:35:15;;;;;;;31.42;19.60;;;;;;;2.56;72.70;100584.65;1739785;82;25817;-65
2023/04/06 10:37:55;;;;;;;12.13;7.33;;;;;;;2.56;72.74;100578.51;1739811;82;25405;-65
2023/04/06 10:40:25;;;;;;;8.35;5.20;;;;;;;2.60;73.14;100583.09;1738842;82;27341;-64
2023/04/06 10:42:55;;;;;;;9.13;4.75;;;;;;;2.67;73.39;100578.09;1739762;82;25342;-65
2023/04/06 10:45:26;;;;;;;9.68;4.65;;;;;;;2.68;73.41;100569.84;1739750;82;25601;-64
2023/04/06 10:47:55;;;;;;;7.78;5.25;;;;;;;2.67;73.11;100569.55;1739687;82;26251;-63
2023/04/06 10:50:23;;;;;;;9.70;4.87;;;;;;;2.68;73.13;100565.83;1739669;82;25409;-65
2023/04/06 10:53:02;;;;;;;6.67;4.78;;;;;;;2.65;73.20;100568.19;1739733;82;27336;-63
2023/04/06 10:55:30;;;;;;;6.95;3.77;;;;;;;2.58;73.07;100569.17;1739710;82;25683;-64
2023/04/06 10:57:56;;;;;;;9.50;4.87;;;;;;;2.58;73.31;100563.04;1739710;82;25639;-64
2023/04/06 11:00:24;;;;;;;9.73;5.70;;;;;;;2.57;73.37;100563.58;1739699;82;25626;-64
2023/04/06 11:02:51;;;;;;;10.18;5.70;;;;;;;2.59;73.61;100561.45;1739738;82;25599;-64
2023/04/06 11:05:17;;;;;;;10.75;5.40;;;;;;;2.58;73.52;100555.83;1739796;82;27384;-65
2023/04/06 11:07:45;;;;;;;8.28;5.42;;;;;;;2.58;73.72;100553.16;1739765;82;25615;-66
2023/04/06 11:10:11;;;;;;;9.98;4.62;;;;;;;2.58;73.80;100550.48;1739746;82;25597;-65
2023/04/06 11:12:37;;;;;;;9.18;4.97;;;;;;;2.58;73.83;100555.83;1739729;82;25607;-65
2023/04/06 11:15:05;;;;;;;10.75;6.62;;;;;;;2.62;73.86;100558.80;1739763;82;25521;-65
2023/04/06 11:17:35;;;;;;;10.85;6.30;;;;;;;2.64;73.89;100549.20;1739698;82;27526;-65
2023/04/06 11:20:04;;;;;;;10.85;5.97;;;;;;;2.63;73.77;100541.73;1739674;82;26501;-65
2023/04/06 11:22:31;;;;;;;10.25;6.05;;;;;;;2.70;74.02;100545.02;1717019;82;25609;-65
2023/04/06 11:25:08;;;;;;;10.38;6.12;;;;;;;2.70;74.08;100534.33;1739620;82;25596;-66
2023/04/06 11:27:35;;;;;;;12.53;5.97;;;;;;;2.75;74.15;100542.39;1739739;82;25567;-65